sensor_id;sensor_type;location;lat;lon;timestamp;P1;durP1;ratioP1;P2;durP2;ratioP2
11618;SDS011;5865;48.776;9.280;2022-08-25T00:00:46;2.60;;;2.40;;
11618;SDS011;5865;48.776;9.280;2022-08-25T00:03:14;2.90;;;2.70;;
11618;SDS011;5865;48.776;9.280;2022-08-25T00:05:44;2.72;;;2.53;;
11618;SDS011;5865;48.776;9.280;2022-08-25T00:08:14;3.20;;;2.50;;
11618;SDS011;5865;48.776;9.280;2022-08-25T00:10:45;3.08;;;2.45;;
11618;SDS011;5865;48.776;9.280;2022-08-25T00:13:13;3.47;;;2.53;;
11618;SDS011;5865;48.776;9.280;2022-08-25T00:15:40;3.20;;;2.90;;
11618;SDS011;5865;48.776;9.280;2022-08-25T00:18:09;3.42;;;2.78;;
11618;SDS011;5865;48.776;9.280;2022-08-25T00:20:50;3.00;;;2.70;;
11618;SDS011;5865;48.776;9.280;2022-08-25T00:23:19;3.05;;;2.75;;
11618;SDS011;5865;48.776;9.280;2022-08-25T00:25:50;2.88;;;2.60;;
11618;SDS011;5865;48.776;9.280;2022-08-25T00:28:19;2.88;;;2.67;;
11618;SDS011;5865;48.776;9.280;2022-08-25T00:30:51;2.40;;;2.20;;
11618;SDS011;5865;48.776;9.280;2022-08-25T00:33:19;2.60;;;2.40;;
11618;SDS011;5865;48.776;9.280;2022-08-25T00:35:52;3.17;;;2.60;;
11618;SDS011;5865;48.776;9.280;2022-08-25T00:38:20;3.05;;;2.72;;
11618;SDS011;5865;48.776;9.280;2022-08-25T00:40:52;3.33;;;2.53;;
11618;SDS011;5865;48.776;9.280;2022-08-25T00:43:48;3.53;;;2.92;;
11618;SDS011;5865;48.776;9.280;2022-08-25T00:46:18;3.85;;;2.60;;
11618;SDS011;5865;48.776;9.280;2022-08-25T00:48:48;3.38;;;2.67;;
11618;SDS011;5865;48.776;9.280;2022-08-25T00:51:20;3.03;;;2.72;;
11618;SDS011;5865;48.776;9.280;2022-08-25T00:53:54;3.17;;;2.88;;
11618;SDS011;5865;48.776;9.280;2022-08-25T00:56:29;3.10;;;2.80;;
11618;SDS011;5865;48.776;9.280;2022-08-25T00:59:00;3.10;;;2.80;;
11618;SDS011;5865;48.776;9.280;2022-08-25T01:01:38;3.38;;;3.08;;
11618;SDS011;5865;48.776;9.280;2022-08-25T01:04:05;3.88;;;3.03;;
11618;SDS011;5865;48.776;9.280;2022-08-25T01:06:33;3.58;;;3.28;;
11618;SDS011;5865;48.776;9.280;2022-08-25T01:09:05;3.15;;;2.85;;
11618;SDS011;5865;48.776;9.280;2022-08-25T01:11:34;3.38;;;3.08;;
11618;SDS011;5865;48.776;9.280;2022-08-25T01:14:04;4.03;;;3.35;;
11618;SDS011;5865;48.776;9.280;2022-08-25T01:16:32;3.70;;;3.35;;
11618;SDS011;5865;48.776;9.280;2022-08-25T01:19:01;3.22;;;2.95;;
11618;SDS011;5865;48.776;9.280;2022-08-25T01:21:31;3.67;;;3.38;;
11618;SDS011;5865;48.776;9.280;2022-08-25T01:24:19;3.50;;;3.20;;
11618;SDS011;5865;48.776;9.280;2022-08-25T01:26:52;3.60;;;3.30;;
11618;SDS011;5865;48.776;9.280;2022-08-25T01:29:19;4.28;;;3.45;;
11618;SDS011;5865;48.776;9.280;2022-08-25T01:31:50;4.00;;;3.60;;
11618;SDS011;5865;48.776;9.280;2022-08-25T01:34:22;3.80;;;3.50;;
11618;SDS011;5865;48.776;9.280;2022-08-25T01:36:53;3.47;;;3.17;;
11618;SDS011;5865;48.776;9.280;2022-08-25T01:39:21;3.60;;;3.30;;
11618;SDS011;5865;48.776;9.280;2022-08-25T01:42:03;3.53;;;3.22;;
11618;SDS011;5865;48.776;9.280;2022-08-25T01:44:40;3.63;;;3.33;;
11618;SDS011;5865;48.776;9.280;2022-08-25T01:47:09;4.20;;;3.80;;
11618;SDS011;5865;48.776;9.280;2022-08-25T01:49:37;3.80;;;3.50;;
11618;SDS011;5865;48.776;9.280;2022-08-25T01:52:09;4.00;;;3.60;;
11618;SDS011;5865;48.776;9.280;2022-08-25T01:54:40;4.80;;;3.45;;
11618;SDS011;5865;48.776;9.280;2022-08-25T01:57:08;4.05;;;3.63;;
11618;SDS011;5865;48.776;9.280;2022-08-25T01:59:36;3.72;;;3.42;;
11618;SDS011;5865;48.776;9.280;2022-08-25T02:02:03;4.20;;;3.80;;
11618;SDS011;5865;48.776;9.280;2022-08-25T02:04:38;4.20;;;3.80;;
11618;SDS011;5865;48.776;9.280;2022-08-25T02:07:09;4.90;;;4.00;;
11618;SDS011;5865;48.776;9.280;2022-08-25T02:09:36;4.30;;;3.60;;
11618;SDS011;5865;48.776;9.280;2022-08-25T02:12:04;4.78;;;3.63;;
11618;SDS011;5865;48.776;9.280;2022-08-25T02:14:33;4.28;;;3.88;;
11618;SDS011;5865;48.776;9.280;2022-08-25T02:17:01;4.15;;;3.75;;
11618;SDS011;5865;48.776;9.280;2022-08-25T02:19:29;4.85;;;3.90;;
11618;SDS011;5865;48.776;9.280;2022-08-25T02:21:56;4.38;;;3.97;;
11618;SDS011;5865;48.776;9.280;2022-08-25T02:24:40;4.50;;;4.07;;
11618;SDS011;5865;48.776;9.280;2022-08-25T02:27:08;4.38;;;3.70;;
11618;SDS011;5865;48.776;9.280;2022-08-25T02:29:36;4.30;;;3.90;;
11618;SDS011;5865;48.776;9.280;2022-08-25T02:32:03;4.38;;;3.97;;
11618;SDS011;5865;48.776;9.280;2022-08-25T02:34:30;4.53;;;4.13;;
11618;SDS011;5865;48.776;9.280;2022-08-25T02:36:59;4.28;;;3.88;;
11618;SDS011;5865;48.776;9.280;2022-08-25T02:39:26;4.70;;;4.30;;
11618;SDS011;5865;48.776;9.280;2022-08-25T02:41:54;4.22;;;3.83;;
11618;SDS011;5865;48.776;9.280;2022-08-25T02:44:24;5.82;;;4.68;;
11618;SDS011;5865;48.776;9.280;2022-08-25T02:46:52;4.90;;;4.00;;
11618;SDS011;5865;48.776;9.280;2022-08-25T02:49:19;4.93;;;4.43;;
11618;SDS011;5865;48.776;9.280;2022-08-25T02:51:46;5.13;;;4.28;;
11618;SDS011;5865;48.776;9.280;2022-08-25T02:54:14;5.07;;;3.83;;
11618;SDS011;5865;48.776;9.280;2022-08-25T02:56:41;5.22;;;4.72;;
11618;SDS011;5865;48.776;9.280;2022-08-25T02:59:09;4.57;;;4.03;;
11618;SDS011;5865;48.776;9.280;2022-08-25T03:01:37;4.65;;;4.20;;
11618;SDS011;5865;48.776;9.280;2022-08-25T03:04:05;4.72;;;4.25;;
11618;SDS011;5865;48.776;9.280;2022-08-25T03:06:34;4.72;;;4.25;;
11618;SDS011;5865;48.776;9.280;2022-08-25T03:09:01;4.60;;;4.20;;
11618;SDS011;5865;48.776;9.280;2022-08-25T03:11:28;4.97;;;4.47;;
11618;SDS011;5865;48.776;9.280;2022-08-25T03:13:55;5.20;;;4.43;;
11618;SDS011;5865;48.776;9.280;2022-08-25T03:16:24;5.00;;;4.50;;
11618;SDS011;5865;48.776;9.280;2022-08-25T03:18:54;5.32;;;4.70;;
11618;SDS011;5865;48.776;9.280;2022-08-25T03:21:24;5.30;;;4.47;;
11618;SDS011;5865;48.776;9.280;2022-08-25T03:23:53;5.03;;;4.53;;
11618;SDS011;5865;48.776;9.280;2022-08-25T03:26:21;4.60;;;3.80;;
11618;SDS011;5865;48.776;9.280;2022-08-25T03:29:05;5.93;;;4.65;;
11618;SDS011;5865;48.776;9.280;2022-08-25T03:31:35;5.15;;;4.75;;
11618;SDS011;5865;48.776;9.280;2022-08-25T03:34:03;5.55;;;4.60;;
11618;SDS011;5865;48.776;9.280;2022-08-25T03:36:30;5.63;;;4.75;;
11618;SDS011;5865;48.776;9.280;2022-08-25T03:38:57;5.07;;;4.57;;
11618;SDS011;5865;48.776;9.280;2022-08-25T03:41:25;5.20;;;4.60;;
11618;SDS011;5865;48.776;9.280;2022-08-25T03:43:57;5.00;;;4.50;;
11618;SDS011;5865;48.776;9.280;2022-08-25T03:46:26;5.95;;;4.90;;
11618;SDS011;5865;48.776;9.280;2022-08-25T03:48:59;5.20;;;4.50;;
11618;SDS011;5865;48.776;9.280;2022-08-25T03:51:31;5.82;;;4.90;;
11618;SDS011;5865;48.776;9.280;2022-08-25T03:53:59;6.35;;;4.88;;
11618;SDS011;5865;48.776;9.280;2022-08-25T03:56:27;5.25;;;4.75;;
11618;SDS011;5865;48.776;9.280;2022-08-25T03:58:57;5.65;;;4.90;;
11618;SDS011;5865;48.776;9.280;2022-08-25T04:01:39;6.30;;;4.80;;
11618;SDS011;5865;48.776;9.280;2022-08-25T04:04:09;5.40;;;4.90;;
11618;SDS011;5865;48.776;9.280;2022-08-25T04:06:38;6.00;;;4.88;;
11618;SDS011;5865;48.776;9.280;2022-08-25T04:09:19;7.20;;;5.20;;
11618;SDS011;5865;48.776;9.280;2022-08-25T04:11:48;5.80;;;5.07;;
11618;SDS011;5865;48.776;9.280;2022-08-25T04:14:16;6.03;;;5.00;;
11618;SDS011;5865;48.776;9.280;2022-08-25T04:16:43;5.88;;;5.18;;
11618;SDS011;5865;48.776;9.280;2022-08-25T04:19:12;5.05;;;4.55;;
11618;SDS011;5865;48.776;9.280;2022-08-25T04:21:39;5.70;;;4.93;;
11618;SDS011;5865;48.776;9.280;2022-08-25T04:24:08;6.72;;;5.20;;
11618;SDS011;5865;48.776;9.280;2022-08-25T04:26:37;5.35;;;4.85;;
11618;SDS011;5865;48.776;9.280;2022-08-25T04:29:06;7.07;;;5.05;;
11618;SDS011;5865;48.776;9.280;2022-08-25T04:31:48;6.10;;;5.45;;
11618;SDS011;5865;48.776;9.280;2022-08-25T04:34:22;6.13;;;5.18;;
11618;SDS011;5865;48.776;9.280;2022-08-25T04:36:58;6.80;;;5.33;;
11618;SDS011;5865;48.776;9.280;2022-08-25T04:39:28;5.93;;;5.20;;
11618;SDS011;5865;48.776;9.280;2022-08-25T04:42:05;6.35;;;5.38;;
11618;SDS011;5865;48.776;9.280;2022-08-25T04:44:33;6.97;;;5.60;;
11618;SDS011;5865;48.776;9.280;2022-08-25T04:47:02;5.25;;;4.70;;
11618;SDS011;5865;48.776;9.280;2022-08-25T04:49:35;5.43;;;4.90;;
11618;SDS011;5865;48.776;9.280;2022-08-25T04:52:06;6.43;;;5.82;;
11618;SDS011;5865;48.776;9.280;2022-08-25T04:54:34;5.80;;;5.20;;
11618;SDS011;5865;48.776;9.280;2022-08-25T04:57:08;6.25;;;5.50;;
11618;SDS011;5865;48.776;9.280;2022-08-25T04:59:35;6.03;;;4.97;;
11618;SDS011;5865;48.776;9.280;2022-08-25T05:02:05;5.95;;;5.03;;
11618;SDS011;5865;48.776;9.280;2022-08-25T05:04:34;6.20;;;5.32;;
11618;SDS011;5865;48.776;9.280;2022-08-25T05:07:03;7.13;;;5.30;;
11618;SDS011;5865;48.776;9.280;2022-08-25T05:09:45;5.40;;;4.90;;
11618;SDS011;5865;48.776;9.280;2022-08-25T05:12:26;7.07;;;5.30;;
11618;SDS011;5865;48.776;9.280;2022-08-25T05:14:54;5.80;;;5.20;;
11618;SDS011;5865;48.776;9.280;2022-08-25T05:17:41;5.57;;;5.07;;
11618;SDS011;5865;48.776;9.280;2022-08-25T05:20:24;6.07;;;5.47;;
11618;SDS011;5865;48.776;9.280;2022-08-25T05:22:55;6.30;;;5.53;;
11618;SDS011;5865;48.776;9.280;2022-08-25T05:25:24;5.65;;;5.00;;
11618;SDS011;5865;48.776;9.280;2022-08-25T05:27:54;6.80;;;5.10;;
11618;SDS011;5865;48.776;9.280;2022-08-25T05:30:21;5.95;;;5.22;;
11618;SDS011;5865;48.776;9.280;2022-08-25T05:33:02;5.22;;;4.70;;
11618;SDS011;5865;48.776;9.280;2022-08-25T05:35:34;5.10;;;4.60;;
11618;SDS011;5865;48.776;9.280;2022-08-25T05:38:02;5.38;;;4.88;;
11618;SDS011;5865;48.776;9.280;2022-08-25T05:40:30;5.30;;;4.80;;
11618;SDS011;5865;48.776;9.280;2022-08-25T05:42:57;6.22;;;5.10;;
11618;SDS011;5865;48.776;9.280;2022-08-25T05:45:25;5.38;;;4.88;;
11618;SDS011;5865;48.776;9.280;2022-08-25T05:47:53;6.30;;;4.90;;
11618;SDS011;5865;48.776;9.280;2022-08-25T05:50:20;6.53;;;4.68;;
11618;SDS011;5865;48.776;9.280;2022-08-25T05:52:49;5.25;;;4.75;;
11618;SDS011;5865;48.776;9.280;2022-08-25T05:55:17;5.97;;;4.90;;
11618;SDS011;5865;48.776;9.280;2022-08-25T05:57:45;5.30;;;4.80;;
11618;SDS011;5865;48.776;9.280;2022-08-25T06:00:12;5.25;;;4.75;;
11618;SDS011;5865;48.776;9.280;2022-08-25T06:02:40;6.00;;;4.22;;
11618;SDS011;5865;48.776;9.280;2022-08-25T06:05:08;6.82;;;5.25;;
11618;SDS011;5865;48.776;9.280;2022-08-25T06:10:21;7.00;;;4.82;;
11618;SDS011;5865;48.776;9.280;2022-08-25T06:12:48;6.50;;;5.10;;
11618;SDS011;5865;48.776;9.280;2022-08-25T06:15:16;8.98;;;6.68;;
11618;SDS011;5865;48.776;9.280;2022-08-25T06:17:44;7.10;;;6.28;;
11618;SDS011;5865;48.776;9.280;2022-08-25T06:20:12;7.57;;;6.47;;
11618;SDS011;5865;48.776;9.280;2022-08-25T06:22:41;9.10;;;6.88;;
11618;SDS011;5865;48.776;9.280;2022-08-25T06:25:09;7.38;;;6.38;;
11618;SDS011;5865;48.776;9.280;2022-08-25T06:27:39;8.93;;;6.85;;
11618;SDS011;5865;48.776;9.280;2022-08-25T06:30:07;8.25;;;6.45;;
11618;SDS011;5865;48.776;9.280;2022-08-25T06:32:38;11.30;;;6.40;;
11618;SDS011;5865;48.776;9.280;2022-08-25T06:35:06;13.18;;;6.90;;
11618;SDS011;5865;48.776;9.280;2022-08-25T06:37:35;11.23;;;6.60;;
11618;SDS011;5865;48.776;9.280;2022-08-25T06:40:03;11.82;;;6.72;;
11618;SDS011;5865;48.776;9.280;2022-08-25T06:42:31;11.40;;;6.65;;
11618;SDS011;5865;48.776;9.280;2022-08-25T06:45:00;11.55;;;6.75;;
11618;SDS011;5865;48.776;9.280;2022-08-25T06:47:27;10.18;;;6.30;;
11618;SDS011;5865;48.776;9.280;2022-08-25T06:49:54;9.68;;;6.28;;
11618;SDS011;5865;48.776;9.280;2022-08-25T06:52:22;9.43;;;6.43;;
11618;SDS011;5865;48.776;9.280;2022-08-25T06:54:49;10.30;;;6.53;;
11618;SDS011;5865;48.776;9.280;2022-08-25T06:57:17;10.38;;;5.88;;
11618;SDS011;5865;48.776;9.280;2022-08-25T06:59:44;9.95;;;6.50;;
11618;SDS011;5865;48.776;9.280;2022-08-25T07:02:13;8.85;;;6.40;;
11618;SDS011;5865;48.776;9.280;2022-08-25T07:04:40;11.93;;;6.60;;
11618;SDS011;5865;48.776;9.280;2022-08-25T07:07:07;6.50;;;5.53;;
11618;SDS011;5865;48.776;9.280;2022-08-25T07:09:34;8.90;;;5.93;;
11618;SDS011;5865;48.776;9.280;2022-08-25T07:12:01;13.48;;;6.55;;
11618;SDS011;5865;48.776;9.280;2022-08-25T07:14:28;8.57;;;6.60;;
11618;SDS011;5865;48.776;9.280;2022-08-25T07:16:56;11.30;;;6.32;;
11618;SDS011;5865;48.776;9.280;2022-08-25T07:19:25;7.43;;;5.70;;
11618;SDS011;5865;48.776;9.280;2022-08-25T07:21:52;10.48;;;5.82;;
11618;SDS011;5865;48.776;9.280;2022-08-25T07:24:19;6.95;;;5.47;;
11618;SDS011;5865;48.776;9.280;2022-08-25T07:26:47;8.57;;;5.95;;
11618;SDS011;5865;48.776;9.280;2022-08-25T07:29:17;10.65;;;5.30;;
11618;SDS011;5865;48.776;9.280;2022-08-25T07:31:50;7.55;;;5.38;;
11618;SDS011;5865;48.776;9.280;2022-08-25T07:34:17;7.50;;;5.00;;
11618;SDS011;5865;48.776;9.280;2022-08-25T07:37:03;5.10;;;4.60;;
11618;SDS011;5865;48.776;9.280;2022-08-25T07:39:31;6.30;;;5.38;;
11618;SDS011;5865;48.776;9.280;2022-08-25T07:41:59;6.25;;;5.05;;
11618;SDS011;5865;48.776;9.280;2022-08-25T07:44:26;5.63;;;4.70;;
11618;SDS011;5865;48.776;9.280;2022-08-25T07:46:55;7.32;;;5.00;;
11618;SDS011;5865;48.776;9.280;2022-08-25T07:49:23;5.95;;;5.38;;
11618;SDS011;5865;48.776;9.280;2022-08-25T07:51:58;5.25;;;4.75;;
11618;SDS011;5865;48.776;9.280;2022-08-25T07:54:31;7.07;;;4.78;;
11618;SDS011;5865;48.776;9.280;2022-08-25T07:57:00;5.05;;;4.55;;
11618;SDS011;5865;48.776;9.280;2022-08-25T07:59:30;5.60;;;4.78;;
11618;SDS011;5865;48.776;9.280;2022-08-25T08:01:58;5.32;;;4.20;;
11618;SDS011;5865;48.776;9.280;2022-08-25T08:04:25;4.80;;;4.40;;
11618;SDS011;5865;48.776;9.280;2022-08-25T08:06:53;4.78;;;4.30;;
11618;SDS011;5865;48.776;9.280;2022-08-25T08:09:20;5.53;;;4.32;;
11618;SDS011;5865;48.776;9.280;2022-08-25T08:11:51;5.50;;;4.30;;
11618;SDS011;5865;48.776;9.280;2022-08-25T08:14:22;6.22;;;4.50;;
11618;SDS011;5865;48.776;9.280;2022-08-25T08:16:55;4.78;;;4.28;;
11618;SDS011;5865;48.776;9.280;2022-08-25T08:19:24;4.85;;;4.05;;
11618;SDS011;5865;48.776;9.280;2022-08-25T08:21:51;5.00;;;4.47;;
11618;SDS011;5865;48.776;9.280;2022-08-25T08:24:21;5.47;;;4.60;;
11618;SDS011;5865;48.776;9.280;2022-08-25T08:26:52;4.88;;;4.20;;
11618;SDS011;5865;48.776;9.280;2022-08-25T08:29:19;4.80;;;4.35;;
11618;SDS011;5865;48.776;9.280;2022-08-25T08:31:47;4.63;;;4.22;;
11618;SDS011;5865;48.776;9.280;2022-08-25T08:34:14;5.07;;;4.20;;
11618;SDS011;5865;48.776;9.280;2022-08-25T08:36:43;4.80;;;4.40;;
11618;SDS011;5865;48.776;9.280;2022-08-25T08:39:11;5.25;;;4.35;;
11618;SDS011;5865;48.776;9.280;2022-08-25T08:47:49;4.80;;;4.05;;
11618;SDS011;5865;48.776;9.280;2022-08-25T08:50:37;4.85;;;4.00;;
11618;SDS011;5865;48.776;9.280;2022-08-25T08:53:09;4.75;;;3.97;;
11618;SDS011;5865;48.776;9.280;2022-08-25T08:55:40;4.50;;;4.10;;
11618;SDS011;5865;48.776;9.280;2022-08-25T08:58:11;4.53;;;4.13;;
11618;SDS011;5865;48.776;9.280;2022-08-25T09:00:46;3.80;;;3.42;;
11618;SDS011;5865;48.776;9.280;2022-08-25T09:03:20;3.95;;;3.65;;
11618;SDS011;5865;48.776;9.280;2022-08-25T09:05:55;4.55;;;4.15;;
11618;SDS011;5865;48.776;9.280;2022-08-25T09:08:23;5.22;;;3.97;;
11618;SDS011;5865;48.776;9.280;2022-08-25T09:10:56;5.57;;;3.83;;
11618;SDS011;5865;48.776;9.280;2022-08-25T09:13:40;5.13;;;4.07;;
11618;SDS011;5865;48.776;9.280;2022-08-25T09:16:13;4.20;;;3.80;;
11618;SDS011;5865;48.776;9.280;2022-08-25T09:19:02;4.40;;;4.00;;
11618;SDS011;5865;48.776;9.280;2022-08-25T09:21:42;4.35;;;3.95;;
11618;SDS011;5865;48.776;9.280;2022-08-25T09:24:25;5.78;;;4.07;;
11618;SDS011;5865;48.776;9.280;2022-08-25T09:26:59;4.75;;;4.32;;
11618;SDS011;5865;48.776;9.280;2022-08-25T09:29:31;4.78;;;4.28;;
11618;SDS011;5865;48.776;9.280;2022-08-25T09:32:07;6.60;;;4.13;;
11618;SDS011;5865;48.776;9.280;2022-08-25T09:34:40;4.38;;;3.97;;
11618;SDS011;5865;48.776;9.280;2022-08-25T09:37:08;4.28;;;3.88;;
11618;SDS011;5865;48.776;9.280;2022-08-25T09:39:38;4.60;;;4.20;;
11618;SDS011;5865;48.776;9.280;2022-08-25T09:42:06;4.90;;;4.15;;
11618;SDS011;5865;48.776;9.280;2022-08-25T09:44:37;4.10;;;3.70;;
11618;SDS011;5865;48.776;9.280;2022-08-25T09:47:12;4.75;;;3.60;;
11618;SDS011;5865;48.776;9.280;2022-08-25T09:49:42;3.92;;;3.50;;
11618;SDS011;5865;48.776;9.280;2022-08-25T09:52:18;4.53;;;3.50;;
11618;SDS011;5865;48.776;9.280;2022-08-25T09:54:58;6.00;;;3.60;;
11618;SDS011;5865;48.776;9.280;2022-08-25T09:57:43;4.30;;;3.70;;
11618;SDS011;5865;48.776;9.280;2022-08-25T10:00:23;6.45;;;3.63;;
11618;SDS011;5865;48.776;9.280;2022-08-25T10:03:01;5.85;;;3.92;;
11618;SDS011;5865;48.776;9.280;2022-08-25T10:05:38;5.18;;;3.75;;
11618;SDS011;5865;48.776;9.280;2022-08-25T10:08:10;5.55;;;3.70;;
11618;SDS011;5865;48.776;9.280;2022-08-25T10:10:39;4.00;;;3.58;;
11618;SDS011;5865;48.776;9.280;2022-08-25T10:13:12;5.10;;;3.45;;
11618;SDS011;5865;48.776;9.280;2022-08-25T10:15:41;4.22;;;3.40;;
11618;SDS011;5865;48.776;9.280;2022-08-25T10:18:23;3.30;;;3.00;;
11618;SDS011;5865;48.776;9.280;2022-08-25T10:21:02;5.38;;;3.63;;
11618;SDS011;5865;48.776;9.280;2022-08-25T10:23:48;3.90;;;3.13;;
11618;SDS011;5865;48.776;9.280;2022-08-25T10:26:42;5.25;;;3.55;;
11618;SDS011;5865;48.776;9.280;2022-08-25T10:29:23;4.65;;;3.63;;
11618;SDS011;5865;48.776;9.280;2022-08-25T10:39:12;3.40;;;3.10;;
11618;SDS011;5865;48.776;9.280;2022-08-25T10:42:27;3.75;;;3.00;;
11618;SDS011;5865;48.776;9.280;2022-08-25T10:45:06;3.58;;;3.20;;
11618;SDS011;5865;48.776;9.280;2022-08-25T10:48:13;3.60;;;3.30;;
11618;SDS011;5865;48.776;9.280;2022-08-25T10:51:05;3.35;;;3.05;;
11618;SDS011;5865;48.776;9.280;2022-08-25T10:53:49;3.75;;;3.45;;
11618;SDS011;5865;48.776;9.280;2022-08-25T10:56:35;3.60;;;3.30;;
11618;SDS011;5865;48.776;9.280;2022-08-25T10:59:22;3.30;;;3.00;;
11618;SDS011;5865;48.776;9.280;2022-08-25T11:05:16;3.10;;;2.85;;
11618;SDS011;5865;48.776;9.280;2022-08-25T11:08:09;3.13;;;2.83;;
11618;SDS011;5865;48.776;9.280;2022-08-25T11:10:54;2.90;;;2.60;;
11618;SDS011;5865;48.776;9.280;2022-08-25T11:13:45;3.55;;;3.13;;
11618;SDS011;5865;48.776;9.280;2022-08-25T11:16:54;3.47;;;2.92;;
11618;SDS011;5865;48.776;9.280;2022-08-25T11:22:43;3.45;;;2.90;;
11618;SDS011;5865;48.776;9.280;2022-08-25T11:25:28;3.53;;;2.90;;
11618;SDS011;5865;48.776;9.280;2022-08-25T11:27:59;3.05;;;2.60;;
11618;SDS011;5865;48.776;9.280;2022-08-25T11:30:35;2.70;;;2.50;;
11618;SDS011;5865;48.776;9.280;2022-08-25T11:33:03;3.67;;;2.63;;
11618;SDS011;5865;48.776;9.280;2022-08-25T11:35:46;3.33;;;2.60;;
11618;SDS011;5865;48.776;9.280;2022-08-25T11:38:34;3.33;;;2.47;;
11618;SDS011;5865;48.776;9.280;2022-08-25T11:41:26;2.75;;;2.53;;
11618;SDS011;5865;48.776;9.280;2022-08-25T11:44:38;3.85;;;2.63;;
11618;SDS011;5865;48.776;9.280;2022-08-25T11:47:19;2.72;;;2.40;;
11618;SDS011;5865;48.776;9.280;2022-08-25T11:57:09;3.03;;;2.75;;
11618;SDS011;5865;48.776;9.280;2022-08-25T12:00:11;2.72;;;2.53;;
11618;SDS011;5865;48.776;9.280;2022-08-25T12:02:49;2.72;;;2.53;;
11618;SDS011;5865;48.776;9.280;2022-08-25T12:14:16;2.50;;;2.30;;
11618;SDS011;5865;48.776;9.280;2022-08-25T12:17:02;4.45;;;3.28;;
11618;SDS011;5865;48.776;9.280;2022-08-25T12:22:39;3.45;;;2.40;;
11618;SDS011;5865;48.776;9.280;2022-08-25T12:25:28;2.50;;;2.30;;
11618;SDS011;5865;48.776;9.280;2022-08-25T12:31:22;2.88;;;2.58;;
11618;SDS011;5865;48.776;9.280;2022-08-25T12:34:01;2.85;;;2.60;;
11618;SDS011;5865;48.776;9.280;2022-08-25T12:36:40;2.40;;;2.20;;
11618;SDS011;5865;48.776;9.280;2022-08-25T12:39:22;3.22;;;2.50;;
11618;SDS011;5865;48.776;9.280;2022-08-25T12:41:55;2.78;;;2.58;;
11618;SDS011;5865;48.776;9.280;2022-08-25T12:47:32;2.70;;;2.40;;
11618;SDS011;5865;48.776;9.280;2022-08-25T12:53:00;4.90;;;2.70;;
11618;SDS011;5865;48.776;9.280;2022-08-25T12:55:35;2.55;;;2.35;;
11618;SDS011;5865;48.776;9.280;2022-08-25T12:58:05;2.38;;;2.17;;
11618;SDS011;5865;48.776;9.280;2022-08-25T13:00:34;4.07;;;2.67;;
11618;SDS011;5865;48.776;9.280;2022-08-25T13:03:20;3.22;;;2.92;;
11618;SDS011;5865;48.776;9.280;2022-08-25T13:06:08;2.65;;;2.45;;
11618;SDS011;5865;48.776;9.280;2022-08-25T13:09:00;3.50;;;2.80;;
11618;SDS011;5865;48.776;9.280;2022-08-25T13:11:52;2.50;;;2.30;;
11618;SDS011;5865;48.776;9.280;2022-08-25T13:14:32;2.85;;;2.10;;
11618;SDS011;5865;48.776;9.280;2022-08-25T13:17:02;2.63;;;2.40;;
11618;SDS011;5865;48.776;9.280;2022-08-25T13:19:31;2.30;;;2.13;;
11618;SDS011;5865;48.776;9.280;2022-08-25T13:21:59;2.22;;;2.00;;
11618;SDS011;5865;48.776;9.280;2022-08-25T13:24:29;2.53;;;2.00;;
11618;SDS011;5865;48.776;9.280;2022-08-25T13:27:00;2.00;;;1.90;;
11618;SDS011;5865;48.776;9.280;2022-08-25T13:29:30;3.90;;;2.15;;
11618;SDS011;5865;48.776;9.280;2022-08-25T13:31:59;2.33;;;2.13;;
11618;SDS011;5865;48.776;9.280;2022-08-25T13:34:28;3.10;;;2.20;;
11618;SDS011;5865;48.776;9.280;2022-08-25T13:37:03;2.53;;;2.30;;
11618;SDS011;5865;48.776;9.280;2022-08-25T13:39:49;2.35;;;2.15;;
11618;SDS011;5865;48.776;9.280;2022-08-25T13:42:58;2.38;;;2.22;;
11618;SDS011;5865;48.776;9.280;2022-08-25T13:45:30;3.50;;;2.20;;
11618;SDS011;5865;48.776;9.280;2022-08-25T13:48:00;2.42;;;2.22;;
11618;SDS011;5865;48.776;9.280;2022-08-25T13:50:29;2.90;;;2.10;;
11618;SDS011;5865;48.776;9.280;2022-08-25T13:52:59;2.40;;;2.20;;
11618;SDS011;5865;48.776;9.280;2022-08-25T13:55:28;2.50;;;2.30;;
11618;SDS011;5865;48.776;9.280;2022-08-25T13:58:00;2.28;;;2.00;;
11618;SDS011;5865;48.776;9.280;2022-08-25T14:00:29;2.42;;;2.10;;
11618;SDS011;5865;48.776;9.280;2022-08-25T14:02:59;2.97;;;1.90;;
11618;SDS011;5865;48.776;9.280;2022-08-25T14:05:30;1.98;;;1.88;;
11618;SDS011;5865;48.776;9.280;2022-08-25T14:07:59;2.10;;;1.75;;
11618;SDS011;5865;48.776;9.280;2022-08-25T14:10:32;2.13;;;1.92;;
11618;SDS011;5865;48.776;9.280;2022-08-25T14:13:10;2.47;;;2.28;;
11618;SDS011;5865;48.776;9.280;2022-08-25T14:15:39;2.80;;;2.15;;
11618;SDS011;5865;48.776;9.280;2022-08-25T14:18:08;2.30;;;2.10;;
11618;SDS011;5865;48.776;9.280;2022-08-25T14:20:42;4.40;;;1.92;;
11618;SDS011;5865;48.776;9.280;2022-08-25T14:23:14;4.07;;;1.67;;
11618;SDS011;5865;48.776;9.280;2022-08-25T14:25:42;2.00;;;1.90;;
11618;SDS011;5865;48.776;9.280;2022-08-25T14:28:12;2.60;;;1.98;;
11618;SDS011;5865;48.776;9.280;2022-08-25T14:30:41;2.05;;;1.83;;
11618;SDS011;5865;48.776;9.280;2022-08-25T14:33:11;2.10;;;1.90;;
11618;SDS011;5865;48.776;9.280;2022-08-25T14:35:42;2.25;;;2.05;;
11618;SDS011;5865;48.776;9.280;2022-08-25T14:38:12;3.67;;;2.20;;
11618;SDS011;5865;48.776;9.280;2022-08-25T14:40:40;2.40;;;2.20;;
11618;SDS011;5865;48.776;9.280;2022-08-25T14:43:07;2.25;;;2.00;;
11618;SDS011;5865;48.776;9.280;2022-08-25T14:45:37;2.08;;;1.98;;
11618;SDS011;5865;48.776;9.280;2022-08-25T14:48:07;3.03;;;2.20;;
11618;SDS011;5865;48.776;9.280;2022-08-25T14:50:35;1.90;;;1.80;;
11618;SDS011;5865;48.776;9.280;2022-08-25T14:53:03;2.30;;;2.10;;
11618;SDS011;5865;48.776;9.280;2022-08-25T14:55:30;1.98;;;1.80;;
11618;SDS011;5865;48.776;9.280;2022-08-25T14:57:57;2.17;;;2.03;;
11618;SDS011;5865;48.776;9.280;2022-08-25T15:00:25;1.88;;;1.77;;
11618;SDS011;5865;48.776;9.280;2022-08-25T15:02:53;2.47;;;1.98;;
11618;SDS011;5865;48.776;9.280;2022-08-25T15:05:22;2.08;;;1.90;;
11618;SDS011;5865;48.776;9.280;2022-08-25T15:07:51;1.98;;;1.77;;
11618;SDS011;5865;48.776;9.280;2022-08-25T15:10:37;2.28;;;1.98;;
11618;SDS011;5865;48.776;9.280;2022-08-25T15:13:05;2.58;;;2.38;;
11618;SDS011;5865;48.776;9.280;2022-08-25T15:15:33;2.40;;;2.20;;
11618;SDS011;5865;48.776;9.280;2022-08-25T15:18:05;3.22;;;2.40;;
11618;SDS011;5865;48.776;9.280;2022-08-25T15:20:33;2.50;;;2.30;;
11618;SDS011;5865;48.776;9.280;2022-08-25T15:23:00;2.78;;;2.28;;
11618;SDS011;5865;48.776;9.280;2022-08-25T15:25:27;2.70;;;2.20;;
11618;SDS011;5865;48.776;9.280;2022-08-25T15:27:54;2.97;;;2.50;;
11618;SDS011;5865;48.776;9.280;2022-08-25T15:30:21;2.88;;;2.60;;
11618;SDS011;5865;48.776;9.280;2022-08-25T15:32:48;3.60;;;2.30;;
11618;SDS011;5865;48.776;9.280;2022-08-25T15:35:17;2.60;;;2.40;;
11618;SDS011;5865;48.776;9.280;2022-08-25T15:37:44;3.10;;;2.80;;
11618;SDS011;5865;48.776;9.280;2022-08-25T15:40:12;2.70;;;2.40;;
11618;SDS011;5865;48.776;9.280;2022-08-25T15:42:39;2.33;;;2.13;;
11618;SDS011;5865;48.776;9.280;2022-08-25T15:45:07;2.95;;;2.40;;
11618;SDS011;5865;48.776;9.280;2022-08-25T15:47:35;2.35;;;2.15;;
11618;SDS011;5865;48.776;9.280;2022-08-25T15:50:04;3.00;;;2.50;;
11618;SDS011;5865;48.776;9.280;2022-08-25T15:52:34;2.47;;;2.28;;
11618;SDS011;5865;48.776;9.280;2022-08-25T15:55:02;2.83;;;2.55;;
11618;SDS011;5865;48.776;9.280;2022-08-25T15:57:29;2.83;;;2.00;;
11618;SDS011;5865;48.776;9.280;2022-08-25T15:59:56;4.18;;;2.35;;
11618;SDS011;5865;48.776;9.280;2022-08-25T16:02:24;2.50;;;2.30;;
11618;SDS011;5865;48.776;9.280;2022-08-25T16:04:51;2.40;;;2.20;;
11618;SDS011;5865;48.776;9.280;2022-08-25T16:07:19;2.28;;;1.98;;
11618;SDS011;5865;48.776;9.280;2022-08-25T16:09:48;4.20;;;2.30;;
11618;SDS011;5865;48.776;9.280;2022-08-25T16:12:15;2.35;;;2.15;;
11618;SDS011;5865;48.776;9.280;2022-08-25T16:14:42;3.22;;;2.40;;
11618;SDS011;5865;48.776;9.280;2022-08-25T16:17:09;2.85;;;2.30;;
11618;SDS011;5865;48.776;9.280;2022-08-25T16:19:36;3.30;;;2.28;;
11618;SDS011;5865;48.776;9.280;2022-08-25T16:22:04;3.25;;;2.60;;